createdAt,value
2023-01-29T00:03:45.859Z,-1.49
2023-01-29T00:08:48.619Z,-1.47
2023-01-29T00:13:52.545Z,-1.46
2023-01-29T00:18:55.327Z,-1.44
2023-01-29T00:23:58.740Z,-1.44
2023-01-29T00:29:02.218Z,-1.39
2023-01-29T00:34:05.100Z,-1.35
2023-01-29T00:39:10.801Z,-1.35
2023-01-29T00:44:32.505Z,-1.31
2023-01-29T00:49:35.237Z,-1.29
2023-01-29T00:54:38.037Z,-1.26
2023-01-29T00:59:40.894Z,-1.22
2023-01-29T01:04:43.644Z,-1.18
2023-01-29T01:10:05.212Z,-1.17
2023-01-29T01:15:09.076Z,-1.18
2023-01-29T01:20:13.560Z,-1.19
2023-01-29T01:25:17.657Z,-1.15
2023-01-29T01:30:20.548Z,-1.14
2023-01-29T01:35:23.301Z,-1.17
2023-01-29T01:40:26.720Z,-1.18
2023-01-29T01:45:35.441Z,-1.16
2023-01-29T01:51:00.811Z,-1.15
2023-01-29T01:56:07.973Z,-1.17
2023-01-29T02:01:12.464Z,-1.14
2023-01-29T02:06:34.135Z,-1.11
2023-01-29T02:11:38.460Z,-1.10
2023-01-29T02:16:41.224Z,-1.12
2023-01-29T02:21:43.897Z,-1.10
2023-01-29T02:27:08.414Z,-1.09
2023-01-29T02:32:17.388Z,-1.08
2023-01-29T02:37:27.327Z,-1.06
2023-01-29T02:42:44.613Z,-1.03
2023-01-29T02:48:00.660Z,-1.03
2023-01-29T02:53:27.494Z,-1.05
2023-01-29T02:58:41.580Z,-1.04
2023-01-29T03:03:50.836Z,-1.09
2023-01-29T03:08:59.161Z,-1.12
2023-01-29T03:14:20.954Z,-1.14
2023-01-29T03:19:36.341Z,-1.17
2023-01-29T03:25:06.869Z,-1.17
2023-01-29T03:30:31.642Z,-1.17
2023-01-29T03:35:39.682Z,-1.18
2023-01-29T03:41:32.181Z,-1.18
2023-01-29T03:46:57.705Z,-1.17
2023-01-29T03:52:09.720Z,-1.19
2023-01-29T03:57:36.428Z,-1.20
2023-01-29T04:02:47.369Z,-1.21
2023-01-29T04:07:57.741Z,-1.21
2023-01-29T04:13:06.536Z,-1.19
2023-01-29T04:18:10.694Z,-1.17
2023-01-29T04:23:25.408Z,-1.19
2023-01-29T04:28:53.976Z,-1.17
2023-01-29T04:34:25.759Z,-1.17
2023-01-29T04:39:48.261Z,-1.17
2023-01-29T04:45:03.707Z,-1.17
2023-01-29T04:50:28.880Z,-1.16
2023-01-29T04:55:36.157Z,-1.15
2023-01-29T05:00:44.778Z,-1.15
2023-01-29T05:05:51.054Z,-1.14
2023-01-29T05:10:56.010Z,-1.15
2023-01-29T05:16:20.848Z,-1.15
2023-01-29T05:21:24.903Z,-1.11
2023-01-29T05:26:46.670Z,-1.11
2023-01-29T05:31:49.456Z,-1.09
2023-01-29T05:36:52.334Z,-1.07
2023-01-29T05:41:55.089Z,-1.09
2023-01-29T05:46:57.901Z,-1.10
2023-01-29T05:52:00.702Z,-1.07
2023-01-29T05:57:03.638Z,-1.05
2023-01-29T06:02:06.533Z,-1.04
2023-01-29T06:07:09.374Z,-1.01
2023-01-29T06:12:13.160Z,-0.99
2023-01-29T06:17:16.043Z,-0.96
2023-01-29T06:22:18.783Z,-0.90
2023-01-29T06:27:21.595Z,-0.86
2023-01-29T06:32:24.390Z,-0.84
2023-01-29T06:37:27.215Z,-0.82
2023-01-29T06:42:30.011Z,-0.81
2023-01-29T06:47:32.800Z,-0.82
2023-01-29T06:52:35.594Z,-0.83
2023-01-29T06:57:38.337Z,-0.84
2023-01-29T07:02:41.079Z,-0.83
2023-01-29T07:07:43.910Z,-0.82
2023-01-29T07:12:46.818Z,-0.79
2023-01-29T07:17:56.794Z,-0.75
2023-01-29T07:22:59.572Z,-0.74
2023-01-29T07:28:02.808Z,-0.74
2023-01-29T07:33:08.479Z,-0.72
2023-01-29T07:38:11.937Z,-0.66
2023-01-29T07:43:16.719Z,-0.60
2023-01-29T07:48:19.978Z,-0.54
2023-01-29T07:53:23.156Z,-0.43
2023-01-29T07:58:25.971Z,-0.32
2023-01-29T08:03:28.712Z,-0.29
2023-01-29T08:08:31.691Z,-0.24
2023-01-29T08:13:34.494Z,-0.13
2023-01-29T08:18:38.623Z,-0.02
2023-01-29T08:23:41.494Z,0.09
2023-01-29T08:28:44.289Z,0.12
2023-01-29T08:33:47.150Z,0.13
2023-01-29T08:38:50.611Z,0.20
2023-01-29T08:43:53.445Z,0.23
2023-01-29T08:48:59.454Z,0.27
2023-01-29T08:54:02.270Z,0.35
2023-01-29T08:59:05.273Z,0.42
2023-01-29T09:04:08.130Z,0.44
2023-01-29T09:09:12.054Z,0.52
2023-01-29T09:14:19.583Z,0.59
2023-01-29T09:19:22.579Z,0.61
2023-01-29T09:24:25.705Z,0.62
2023-01-29T09:29:28.530Z,0.65
2023-01-29T09:34:31.485Z,0.67
2023-01-29T09:39:34.316Z,0.70
2023-01-29T09:45:04.878Z,0.73
2023-01-29T09:50:28.786Z,0.71
2023-01-29T09:55:46.559Z,0.70
2023-01-29T10:00:49.463Z,0.77
2023-01-29T10:06:07.544Z,0.89
2023-01-29T10:11:19.307Z,1.07
2023-01-29T10:16:48.469Z,1.11
2023-01-29T10:22:05.721Z,1.13
2023-01-29T10:27:19.438Z,1.15
2023-01-29T10:32:25.805Z,1.11
2023-01-29T10:37:41.704Z,1.07
2023-01-29T10:42:53.122Z,1.02
2023-01-29T10:48:26.310Z,1.03
2023-01-29T10:53:53.613Z,1.14
2023-01-29T10:59:07.193Z,1.15
2023-01-29T11:04:12.875Z,1.11
2023-01-29T11:09:37.499Z,1.11
2023-01-29T11:14:54.319Z,1.09
2023-01-29T11:19:57.277Z,1.01
2023-01-29T11:25:16.661Z,0.98
2023-01-29T11:30:41.548Z,0.91
2023-01-29T11:35:44.876Z,0.94
2023-01-29T11:40:48.118Z,0.99
2023-01-29T11:45:59.036Z,1.01
2023-01-29T11:51:05.603Z,1.07
2023-01-29T11:56:29.690Z,1.14
2023-01-29T12:01:42.909Z,1.23
2023-01-29T12:07:12.190Z,1.22
2023-01-29T12:12:42.252Z,1.18
2023-01-29T12:17:54.110Z,1.12
2023-01-29T12:23:05.102Z,1.05
2023-01-29T12:28:41.495Z,0.99
2023-01-29T12:33:57.317Z,1.02
2023-01-29T12:39:00.719Z,1.03
2023-01-29T12:44:26.066Z,1.06
2023-01-29T12:49:36.521Z,1.06
2023-01-29T12:55:00.219Z,1.08
2023-01-29T13:00:27.846Z,1.08
2023-01-29T13:05:47.377Z,1.04
2023-01-29T13:10:54.032Z,1.03
2023-01-29T13:16:00.087Z,1.02
2023-01-29T13:21:05.260Z,0.99
2023-01-29T13:26:08.167Z,1.03
2023-01-29T13:31:22.716Z,1.05
2023-01-29T13:36:29.951Z,1.04
2023-01-29T13:41:38.844Z,1.02
2023-01-29T13:46:42.321Z,0.97
2023-01-29T13:51:45.123Z,0.92
2023-01-29T13:56:53.983Z,0.91
2023-01-29T14:02:05.587Z,0.89
2023-01-29T14:07:50.011Z,0.86
2023-01-29T14:12:55.679Z,0.88
2023-01-29T14:18:10.936Z,0.87
2023-01-29T14:23:21.750Z,0.84
2023-01-29T14:28:29.445Z,0.83
2023-01-29T14:33:37.167Z,0.80
2023-01-29T14:38:48.685Z,0.78
2023-01-29T14:43:51.595Z,0.75
2023-01-29T14:48:54.532Z,0.72
2023-01-29T14:54:16.672Z,0.71
2023-01-29T14:59:30.608Z,0.68
2023-01-29T15:04:51.090Z,0.67
2023-01-29T15:10:32.729Z,0.68
2023-01-29T15:15:54.387Z,0.64
2023-01-29T15:21:05.822Z,0.62
2023-01-29T15:26:16.186Z,0.61
2023-01-29T15:31:20.448Z,0.61
2023-01-29T15:36:28.356Z,0.61
2023-01-29T15:41:32.123Z,0.61
2023-01-29T15:46:39.423Z,0.62
2023-01-29T15:51:42.524Z,0.65
2023-01-29T15:56:50.470Z,0.65
2023-01-29T16:01:54.434Z,0.66
2023-01-29T16:07:04.728Z,0.68
2023-01-29T16:12:08.096Z,0.68
2023-01-29T16:17:23.589Z,0.69
2023-01-29T16:22:31.495Z,0.69
2023-01-29T16:27:35.181Z,0.70
2023-01-29T16:32:38.080Z,0.72
2023-01-29T16:37:44.764Z,0.70
2023-01-29T16:42:47.583Z,0.70
2023-01-29T16:48:01.892Z,0.71
2023-01-29T16:53:19.981Z,0.71
2023-01-29T16:58:28.001Z,0.72
2023-01-29T17:03:33.868Z,0.70
2023-01-29T17:08:37.849Z,0.69
2023-01-29T17:13:45.153Z,0.71
2023-01-29T17:18:48.069Z,0.70
2023-01-29T17:23:54.036Z,0.69
2023-01-29T17:28:57.135Z,0.69
2023-01-29T17:34:00.122Z,0.71
2023-01-29T17:39:17.649Z,0.69
2023-01-29T17:44:28.248Z,0.71
2023-01-29T17:49:35.966Z,0.71
2023-01-29T17:54:38.784Z,0.68
2023-01-29T17:59:41.627Z,0.65
2023-01-29T18:04:51.123Z,0.61
2023-01-29T18:09:54.167Z,0.58
2023-01-29T18:14:57.311Z,0.57
2023-01-29T18:20:00.238Z,0.54
2023-01-29T18:25:03.451Z,0.56
2023-01-29T18:30:07.454Z,0.59
2023-01-29T18:35:11.226Z,0.61
2023-01-29T18:40:17.480Z,0.64
2023-01-29T18:45:21.031Z,0.61
2023-01-29T18:50:26.741Z,0.60
2023-01-29T18:55:31.209Z,0.59
2023-01-29T19:00:39.454Z,0.58
2023-01-29T19:05:42.367Z,0.59
2023-01-29T19:10:45.199Z,0.60
2023-01-29T19:15:50.659Z,0.60
2023-01-29T19:20:54.492Z,0.63
2023-01-29T19:25:59.748Z,0.64
2023-01-29T19:31:04.360Z,0.65
2023-01-29T19:36:07.697Z,0.66
2023-01-29T19:41:11.154Z,0.68
2023-01-29T19:46:14.820Z,0.65
2023-01-29T19:51:17.689Z,0.62
2023-01-29T19:56:21.501Z,0.63
2023-01-29T20:01:25.101Z,0.63
2023-01-29T20:06:31.216Z,0.67
2023-01-29T20:11:34.175Z,0.66
2023-01-29T20:16:37.479Z,0.62
2023-01-29T20:21:41.213Z,0.60
2023-01-29T20:26:44.774Z,0.59
2023-01-29T20:31:47.894Z,0.57
2023-01-29T20:36:50.767Z,0.57
2023-01-29T20:41:55.220Z,0.59
2023-01-29T20:47:01.836Z,0.59
2023-01-29T20:52:06.860Z,0.60
2023-01-29T20:57:09.644Z,0.62
2023-01-29T21:02:12.572Z,0.65
2023-01-29T21:07:15.760Z,0.66
2023-01-29T21:12:18.917Z,0.66
2023-01-29T21:17:21.753Z,0.67
2023-01-29T21:22:25.763Z,0.66
2023-01-29T21:27:28.520Z,0.66
2023-01-29T21:32:31.434Z,0.68
2023-01-29T21:37:39.206Z,0.72
2023-01-29T21:43:00.779Z,0.77
2023-01-29T21:48:04.331Z,0.78
2023-01-29T21:53:07.164Z,0.78
2023-01-29T21:58:10.311Z,0.81
2023-01-29T22:03:13.140Z,0.82
2023-01-29T22:08:27.354Z,0.80
2023-01-29T22:13:30.562Z,0.79
2023-01-29T22:18:34.190Z,0.79
2023-01-29T22:23:37.039Z,0.78
2023-01-29T22:28:40.304Z,0.77
2023-01-29T22:33:43.457Z,0.78
2023-01-29T22:38:46.917Z,0.79
2023-01-29T22:43:49.689Z,0.79
2023-01-29T22:48:52.480Z,0.81
2023-01-29T22:53:56.617Z,0.82
2023-01-29T22:59:00.899Z,0.80
2023-01-29T23:04:04.148Z,0.82
2023-01-29T23:09:07.057Z,0.84
2023-01-29T23:14:09.982Z,0.82
2023-01-29T23:19:12.818Z,0.78
2023-01-29T23:24:15.723Z,0.78
2023-01-29T23:29:18.552Z,0.76
2023-01-29T23:34:22.503Z,0.77
2023-01-29T23:39:25.283Z,0.76
2023-01-29T23:44:28.910Z,0.76
2023-01-29T23:49:32.064Z,0.78
2023-01-29T23:54:34.808Z,0.77
2023-01-29T23:59:37.624Z,0.77
